Getzville 2E NY

43° 01' 25"N, 78° 44' 55"W, Elevation 589 ft.
Eastern Time

Hourly observations for the last 72 hours

Date Time Temperature (°F) Humi-
dity

(%)
Wind
(mph)
Pressure Rain (in) Sun
(W/m2)
ET
(in)
Air Dew 6 Hour 1 Hr 3 Hr 6 Hr Day
Alt
(in)
Sea
Level

(mb)
Max Min
21 19:00 28.4 16.7 30.6 27.8 61 WSW 6 G 20 30.34 1027.4 0.00 0 0.053
21 18:00 28.0 18.1 66 WSW 6 G 21 30.35 1027.7 0.00 0 0.052
21 17:00 28.7 18.4 65 WSW 5 G 16 30.38 1028.6 0.00 33 0.050
21 16:00 29.7 20.1 67 SW 7 G 20 30.40 1029.4 0.00 211 0.046
21 15:00 29.6 18.6 63 SW 10 G 17 30.42 1030.3 0.00 308 0.041
21 14:00 30.3 18.5 61 W 9 G 25 30.44 1031.0 0.00 526 0.032
21 13:00 29.9 18.1 30.6 16.9 61 W 7 G 17 30.48 1032.2 0.00 766 0.021
21 12:00 29.2 17.8 62 W 6 G 16 30.50 1032.9 0.00 772 0.011
21 11:00 28.2 16.9 62 W 8 G 19 30.51 1033.3 0.00 701 0.004
21 10:00 24.8 14.7 65 SW 6 G 17 30.52 1033.5 0.00 287 0.002
21 09:00 21.3 11.4 65 W 3 G 9 30.53 1033.9 0.00 51 0.001
21 08:00 18.1 8.7 66 W 4 G 9 30.53 1034.0 0.00 32 0.000
21 07:00 16.9 8.5 17.1 12.9 69 SW 3 G 10 30.53 1033.9 0.00 0 0.000
21 06:00 16.0 9.5 75 W 3 G 10 30.54 1034.2 0.00 0 0.000
21 05:00 13.9 8.9 80 SW 1 G 4 30.53 1034.0 0.00 0 0.000
21 04:00 13.4 8.1 79 Calm 30.54 1034.3 0.00 0 0.000
21 03:00 15.0 8.8 76 W 0 G 1 30.56 1034.8 0.00 0 0.000
21 02:00 16.0 9.2 74 W 2 G 6 30.56 1034.9 0.00 0 0.000
21 01:00 16.5 9.4 21.2 16.5 73 W 2 G 6 30.57 1035.2 0.00 0 0.000
21 00:00 17.1 9.0 70 WNW 3 G 8 30.57 1035.2 0.00 0 0.035
20 23:00 18.4 8.9 66 WNW 4 G 13 30.57 1035.3 0.00 0 0.034
20 22:00 19.5 8.6 62 WNW 3 G 10 30.57 1035.4 0.00 0 0.033
20 21:00 20.2 10.0 64 W 7 G 10 30.55 1034.7 0.00 0 0.032
20 20:00 20.7 10.8 65 W 5 G 10 30.55 1034.7 0.00 0 0.031
20 19:00 21.2 10.9 25.7 21.0 64 W 6 G 15 30.54 1034.4 0.00 0 0.030
20 18:00 21.2 10.2 62 WNW 3 G 12 30.52 1033.7 0.00 0 0.029
20 17:00 23.3 11.1 59 NW 5 G 11 30.52 1033.6 0.00 86 0.027
20 16:00 23.3 13.3 65 NW 3 G 7 30.52 1033.6 0.00 93 0.025
20 15:00 23.9 12.0 60 WNW 5 G 10 30.52 1033.7 0.00 141 0.021
20 14:00 25.7 13.0 58 WNW 6 G 11 30.52 1033.7 0.00 524 0.016
20 13:00 24.6 15.2 25.4 18.3 67 NE 3 G 7 30.53 1034.0 0.00 199 0.012
20 12:00 23.5 13.1 64 NW 6 G 11 30.55 1034.6 0.00 278 0.009
20 11:00 24.5 11.8 58 N 4 G 10 30.55 1034.4 0.00 316 0.005
20 10:00 23.8 13.0 63 WNW 4 G 14 30.54 1034.2 0.00 162 0.003
20 09:00 21.5 13.2 70 NW 4 G 8 30.53 1034.0 0.00 62 0.002
20 08:00 18.5 11.9 75 W 2 G 3 30.52 1033.5 0.00 33 0.002
20 07:00 19.0 11.1 20.6 18.1 71 WNW 3 G 7 30.49 1032.5 0.00 0 0.002
20 06:00 19.8 11.6 70 WNW 3 G 8 30.48 1032.2 0.00 0 0.001
20 05:00 20.5 14.1 76 W 1 G 8 30.47 1031.9 0.00 0 0.001
20 04:00 18.5 11.9 75 W 2 G 6 30.46 1031.7 0.00 0 0.001
20 03:00 18.2 11.3 74 W 2 G 6 30.47 1031.8 0.00 0 0.001
20 02:00 19.2 11.0 70 W 1 G 3 30.47 1032.0 0.00 0 0.001
20 01:00 19.9 11.4 25.2 19.9 69 W 2 G 6 30.48 1032.0 0.00 0 0.000
20 00:00 20.9 11.3 66 WNW 3 G 8 30.47 1031.9 0.01 0 0.047
19 23:00 21.8 12.2 66 WNW 3 G 11 30.48 1032.0 0.01 0 0.046
19 22:00 22.5 12.9 66 WNW 5 G 14 30.47 1031.8 0.01 0 0.045
19 21:00 23.4 13.7 66 WNW 4 G 10 30.46 1031.6 0.01 0 0.044
19 20:00 24.5 14.1 64 NW 7 G 15 30.45 1031.2 0.01 0 0.043
19 19:00 25.2 14.7 30.1 25.2 64 W 3 G 13 30.44 1030.9 0.01 0.01 0 0.042
19 18:00 26.5 16.3 65 WNW 5 G 16 30.43 1030.5 0.01 0 0.041
19 17:00 27.9 17.3 64 W 8 G 16 30.42 1030.1 0.01 56 0.039
19 16:00 29.1 17.7 62 W 4 G 9 30.41 1029.9 0.01 0.01 116 0.036
19 15:00 29.7 16.3 57 NW 7 G 14 30.41 1029.7 0.01 408 0.032
19 14:00 29.6 17.4 60 NW 4 G 13 30.41 1029.9 0.01 0.01 230 0.027
19 13:00 29.3 18.3 31.9 27.6 63 WNW 9 G 16 30.41 1030.0 0.00 250 0.020
19 12:00 27.6 16.7 63 WNW 9 G 17 30.42 1030.1 0.00 315 0.016
19 11:00 28.6 20.1 70 WNW 9 G 14 30.41 1029.8 0.00 350 0.012
19 10:00 29.3 20.4 69 NW 6 G 12 30.38 1028.8 0.00 278 0.009
19 09:00 27.7 22.9 82 W 6 G 11 30.37 1028.3 0.00 142 0.008
19 08:00 28.5 20.6 72 W 2 G 12 30.32 1026.6 0.00 33 0.007
19 07:00 28.5 20.0 31.7 28.5 70 W 6 G 18 30.28 1025.5 0.00 0 0.006
19 06:00 28.9 19.7 68 W 8 G 15 30.26 1024.7 0.00 0 0.005
19 05:00 30.5 21.5 69 W 8 G 22 30.23 1023.7 0.00 0 0.004
19 04:00 31.4 24.1 74 W 3 G 11 30.20 1022.9 0.00 0 0.003
19 03:00 31.6 23.9 73 W 5 G 12 30.19 1022.5 0.00 0 0.002
19 02:00 31.6 23.6 72 W 7 G 14 30.19 1022.3 0.00 0 0.001
19 01:00 31.0 24.9 36.4 31.0 78 WNW 5 G 8 30.17 1021.8 0.00 0 0.000
19 00:00 32.5 25.8 76 WNW 4 G 11 30.15 1021.1 0.26 0 0.021
18 23:00 33.3 25.6 73 W 6 G 12 30.14 1020.6 0.26 0 0.020
18 22:00 34.4 26.0 71 W 6 G 17 30.12 1019.9 0.26 0 0.019
18 21:00 35.5 29.3 78 W 5 G 12 30.08 1018.8 0.26 0 0.018
18 20:00 36.2 30.0 78 SW 2 G 11 30.06 1018.0 0.26 0 0.017

Data generated by WxSolution Version 1.9.1.5, Build 2018.05.20.